sensor_id;sensor_type;location;lat;lon;timestamp;temperature;humidity
16929;DHT22;8581;47.334;11.190;2024-03-02T00:02:31;4.70;99.90
16929;DHT22;8581;47.334;11.190;2024-03-02T00:05:04;4.70;99.90
16929;DHT22;8581;47.334;11.190;2024-03-02T00:07:36;4.60;99.90
16929;DHT22;8581;47.334;11.190;2024-03-02T00:10:09;4.60;99.90
16929;DHT22;8581;47.334;11.190;2024-03-02T00:12:42;4.50;99.90
16929;DHT22;8581;47.334;11.190;2024-03-02T00:15:51;4.60;99.90
16929;DHT22;8581;47.334;11.190;2024-03-02T00:18:35;4.60;99.90
16929;DHT22;8581;47.334;11.190;2024-03-02T00:21:06;4.40;99.90
16929;DHT22;8581;47.334;11.190;2024-03-02T00:23:41;4.60;99.90
16929;DHT22;8581;47.334;11.190;2024-03-02T00:26:14;4.50;99.90
16929;DHT22;8581;47.334;11.190;2024-03-02T00:28:46;4.40;99.90
16929;DHT22;8581;47.334;11.190;2024-03-02T00:31:18;4.30;99.90
16929;DHT22;8581;47.334;11.190;2024-03-02T00:33:49;4.30;99.90
16929;DHT22;8581;47.334;11.190;2024-03-02T00:36:24;4.30;99.90
16929;DHT22;8581;47.334;11.190;2024-03-02T00:38:54;4.30;99.90
16929;DHT22;8581;47.334;11.190;2024-03-02T00:41:27;4.20;99.90
16929;DHT22;8581;47.334;11.190;2024-03-02T00:44:13;4.10;99.90
16929;DHT22;8581;47.334;11.190;2024-03-02T00:46:45;4.10;99.90
16929;DHT22;8581;47.334;11.190;2024-03-02T00:49:20;4.00;99.90
16929;DHT22;8581;47.334;11.190;2024-03-02T00:51:51;4.00;99.90
16929;DHT22;8581;47.334;11.190;2024-03-02T00:54:25;4.10;99.90
16929;DHT22;8581;47.334;11.190;2024-03-02T00:56:55;4.20;99.90
16929;DHT22;8581;47.334;11.190;2024-03-02T00:59:27;4.30;99.90
16929;DHT22;8581;47.334;11.190;2024-03-02T01:01:58;4.30;99.90
16929;DHT22;8581;47.334;11.190;2024-03-02T01:04:30;4.40;99.90
16929;DHT22;8581;47.334;11.190;2024-03-02T01:07:01;4.50;99.90
16929;DHT22;8581;47.334;11.190;2024-03-02T01:09:33;4.60;99.90
16929;DHT22;8581;47.334;11.190;2024-03-02T01:12:05;4.50;99.90
16929;DHT22;8581;47.334;11.190;2024-03-02T01:14:37;4.40;99.90
16929;DHT22;8581;47.334;11.190;2024-03-02T01:17:09;4.40;99.90
16929;DHT22;8581;47.334;11.190;2024-03-02T01:19:41;4.50;99.90
16929;DHT22;8581;47.334;11.190;2024-03-02T01:22:12;4.40;99.90
16929;DHT22;8581;47.334;11.190;2024-03-02T01:24:44;4.30;99.90
16929;DHT22;8581;47.334;11.190;2024-03-02T01:27:15;4.30;99.90
16929;DHT22;8581;47.334;11.190;2024-03-02T01:29:47;4.20;99.90
16929;DHT22;8581;47.334;11.190;2024-03-02T01:32:19;4.20;99.90
16929;DHT22;8581;47.334;11.190;2024-03-02T01:34:50;4.10;99.90
16929;DHT22;8581;47.334;11.190;2024-03-02T01:37:22;4.10;99.90
16929;DHT22;8581;47.334;11.190;2024-03-02T01:39:53;4.10;99.90
16929;DHT22;8581;47.334;11.190;2024-03-02T01:42:25;4.20;99.90
16929;DHT22;8581;47.334;11.190;2024-03-02T01:44:57;4.20;99.90
16929;DHT22;8581;47.334;11.190;2024-03-02T01:47:28;4.30;99.90
16929;DHT22;8581;47.334;11.190;2024-03-02T01:50:00;4.20;99.90
16929;DHT22;8581;47.334;11.190;2024-03-02T01:52:31;4.20;99.90
16929;DHT22;8581;47.334;11.190;2024-03-02T01:55:04;4.20;99.90
16929;DHT22;8581;47.334;11.190;2024-03-02T01:57:35;4.30;99.90
16929;DHT22;8581;47.334;11.190;2024-03-02T02:00:08;4.40;99.90
16929;DHT22;8581;47.334;11.190;2024-03-02T02:02:40;4.30;99.90
16929;DHT22;8581;47.334;11.190;2024-03-02T02:05:11;4.30;99.90
16929;DHT22;8581;47.334;11.190;2024-03-02T02:07:43;4.40;99.90
16929;DHT22;8581;47.334;11.190;2024-03-02T02:10:15;4.40;99.90
16929;DHT22;8581;47.334;11.190;2024-03-02T02:12:47;4.60;99.90
16929;DHT22;8581;47.334;11.190;2024-03-02T02:17:59;4.50;99.90
16929;DHT22;8581;47.334;11.190;2024-03-02T02:20:30;4.40;99.90
16929;DHT22;8581;47.334;11.190;2024-03-02T02:23:02;4.40;99.90
16929;DHT22;8581;47.334;11.190;2024-03-02T02:25:34;4.30;99.90
16929;DHT22;8581;47.334;11.190;2024-03-02T02:28:05;4.40;99.90
16929;DHT22;8581;47.334;11.190;2024-03-02T02:30:37;4.40;99.90
16929;DHT22;8581;47.334;11.190;2024-03-02T02:33:08;4.60;99.90
16929;DHT22;8581;47.334;11.190;2024-03-02T02:35:40;4.50;99.90
16929;DHT22;8581;47.334;11.190;2024-03-02T02:38:12;4.60;99.90
16929;DHT22;8581;47.334;11.190;2024-03-02T02:40:44;4.70;99.90
16929;DHT22;8581;47.334;11.190;2024-03-02T02:43:16;4.50;99.90
16929;DHT22;8581;47.334;11.190;2024-03-02T02:45:47;4.40;99.90
16929;DHT22;8581;47.334;11.190;2024-03-02T02:48:19;4.30;99.90
16929;DHT22;8581;47.334;11.190;2024-03-02T02:50:50;4.30;99.90
16929;DHT22;8581;47.334;11.190;2024-03-02T02:53:22;4.30;99.90
16929;DHT22;8581;47.334;11.190;2024-03-02T02:55:54;4.20;99.90
16929;DHT22;8581;47.334;11.190;2024-03-02T02:58:25;4.30;99.90
16929;DHT22;8581;47.334;11.190;2024-03-02T03:00:57;4.30;99.90
16929;DHT22;8581;47.334;11.190;2024-03-02T03:03:28;4.40;99.90
16929;DHT22;8581;47.334;11.190;2024-03-02T03:06:00;4.40;99.90
16929;DHT22;8581;47.334;11.190;2024-03-02T03:08:32;4.30;99.90
16929;DHT22;8581;47.334;11.190;2024-03-02T03:11:03;4.30;99.90
16929;DHT22;8581;47.334;11.190;2024-03-02T03:13:35;4.10;99.90
16929;DHT22;8581;47.334;11.190;2024-03-02T03:16:07;4.20;99.90
16929;DHT22;8581;47.334;11.190;2024-03-02T03:18:38;4.10;99.90
16929;DHT22;8581;47.334;11.190;2024-03-02T03:21:10;4.20;99.90
16929;DHT22;8581;47.334;11.190;2024-03-02T03:23:41;4.20;99.90
16929;DHT22;8581;47.334;11.190;2024-03-02T03:26:13;4.30;99.90
16929;DHT22;8581;47.334;11.190;2024-03-02T03:28:45;4.30;99.90
16929;DHT22;8581;47.334;11.190;2024-03-02T03:31:16;4.30;99.90
16929;DHT22;8581;47.334;11.190;2024-03-02T03:33:48;4.20;99.90
16929;DHT22;8581;47.334;11.190;2024-03-02T03:36:19;4.20;99.90
16929;DHT22;8581;47.334;11.190;2024-03-02T03:38:51;4.20;99.90
16929;DHT22;8581;47.334;11.190;2024-03-02T03:41:23;4.20;99.90
16929;DHT22;8581;47.334;11.190;2024-03-02T03:43:54;4.20;99.90
16929;DHT22;8581;47.334;11.190;2024-03-02T03:46:26;4.20;99.90
16929;DHT22;8581;47.334;11.190;2024-03-02T03:48:58;4.10;99.90
16929;DHT22;8581;47.334;11.190;2024-03-02T03:51:29;4.10;99.90
16929;DHT22;8581;47.334;11.190;2024-03-02T03:54:01;4.10;99.90
16929;DHT22;8581;47.334;11.190;2024-03-02T03:56:32;4.10;99.90
16929;DHT22;8581;47.334;11.190;2024-03-02T03:59:04;4.20;99.90
16929;DHT22;8581;47.334;11.190;2024-03-02T04:01:36;4.20;99.90
16929;DHT22;8581;47.334;11.190;2024-03-02T04:04:07;4.30;99.90
16929;DHT22;8581;47.334;11.190;2024-03-02T04:06:39;4.20;99.90
16929;DHT22;8581;47.334;11.190;2024-03-02T04:09:10;4.20;99.90
16929;DHT22;8581;47.334;11.190;2024-03-02T04:11:42;4.20;99.90
16929;DHT22;8581;47.334;11.190;2024-03-02T04:14:14;4.10;99.90
16929;DHT22;8581;47.334;11.190;2024-03-02T04:16:45;4.20;99.90
16929;DHT22;8581;47.334;11.190;2024-03-02T04:19:17;4.30;99.90
16929;DHT22;8581;47.334;11.190;2024-03-02T04:21:48;4.30;99.90
16929;DHT22;8581;47.334;11.190;2024-03-02T04:24:20;4.40;99.90
16929;DHT22;8581;47.334;11.190;2024-03-02T04:26:52;4.30;99.90
16929;DHT22;8581;47.334;11.190;2024-03-02T04:29:23;4.30;99.90
16929;DHT22;8581;47.334;11.190;2024-03-02T04:31:55;4.30;99.90
16929;DHT22;8581;47.334;11.190;2024-03-02T04:34:26;4.40;99.90
16929;DHT22;8581;47.334;11.190;2024-03-02T04:36:58;4.40;99.90
16929;DHT22;8581;47.334;11.190;2024-03-02T04:39:30;4.30;99.90
16929;DHT22;8581;47.334;11.190;2024-03-02T04:42:01;4.30;99.90
16929;DHT22;8581;47.334;11.190;2024-03-02T04:44:33;4.30;99.90
16929;DHT22;8581;47.334;11.190;2024-03-02T04:47:05;4.30;99.90
16929;DHT22;8581;47.334;11.190;2024-03-02T04:49:36;4.20;99.90
16929;DHT22;8581;47.334;11.190;2024-03-02T04:52:08;4.20;99.90
16929;DHT22;8581;47.334;11.190;2024-03-02T04:54:40;4.30;99.90
16929;DHT22;8581;47.334;11.190;2024-03-02T04:57:17;4.30;99.90
16929;DHT22;8581;47.334;11.190;2024-03-02T04:59:48;4.20;99.90
16929;DHT22;8581;47.334;11.190;2024-03-02T05:02:20;4.20;99.90
16929;DHT22;8581;47.334;11.190;2024-03-02T05:04:51;4.20;99.90
16929;DHT22;8581;47.334;11.190;2024-03-02T05:07:23;4.20;99.90
16929;DHT22;8581;47.334;11.190;2024-03-02T05:09:55;4.20;99.90
16929;DHT22;8581;47.334;11.190;2024-03-02T05:12:26;4.20;99.90
16929;DHT22;8581;47.334;11.190;2024-03-02T05:15:04;4.30;99.90
16929;DHT22;8581;47.334;11.190;2024-03-02T05:17:37;4.20;99.90
16929;DHT22;8581;47.334;11.190;2024-03-02T05:20:09;4.20;99.90
16929;DHT22;8581;47.334;11.190;2024-03-02T05:22:40;4.30;99.90
16929;DHT22;8581;47.334;11.190;2024-03-02T05:25:12;4.30;99.90
16929;DHT22;8581;47.334;11.190;2024-03-02T05:27:44;4.20;99.90
16929;DHT22;8581;47.334;11.190;2024-03-02T05:30:15;4.20;99.90
16929;DHT22;8581;47.334;11.190;2024-03-02T05:32:47;4.20;99.90
16929;DHT22;8581;47.334;11.190;2024-03-02T05:35:24;4.20;99.90
16929;DHT22;8581;47.334;11.190;2024-03-02T05:37:56;4.20;99.90
16929;DHT22;8581;47.334;11.190;2024-03-02T05:40:28;4.10;99.90
16929;DHT22;8581;47.334;11.190;2024-03-02T05:42:59;4.20;99.90
16929;DHT22;8581;47.334;11.190;2024-03-02T05:45:31;4.20;99.90
16929;DHT22;8581;47.334;11.190;2024-03-02T05:48:03;4.20;99.90
16929;DHT22;8581;47.334;11.190;2024-03-02T05:50:35;4.20;99.90
16929;DHT22;8581;47.334;11.190;2024-03-02T05:53:06;4.20;99.90
16929;DHT22;8581;47.334;11.190;2024-03-02T05:55:38;4.20;99.90
16929;DHT22;8581;47.334;11.190;2024-03-02T05:58:09;4.20;99.90
16929;DHT22;8581;47.334;11.190;2024-03-02T06:00:58;4.30;99.90
16929;DHT22;8581;47.334;11.190;2024-03-02T06:03:29;4.20;99.90
16929;DHT22;8581;47.334;11.190;2024-03-02T06:06:01;4.10;99.90
16929;DHT22;8581;47.334;11.190;2024-03-02T06:08:33;4.10;99.90
16929;DHT22;8581;47.334;11.190;2024-03-02T06:11:04;4.00;99.90
16929;DHT22;8581;47.334;11.190;2024-03-02T06:13:36;4.20;99.90
16929;DHT22;8581;47.334;11.190;2024-03-02T06:16:08;4.20;99.90
16929;DHT22;8581;47.334;11.190;2024-03-02T06:18:39;4.20;99.90
16929;DHT22;8581;47.334;11.190;2024-03-02T06:21:11;4.10;99.90
16929;DHT22;8581;47.334;11.190;2024-03-02T06:23:43;4.00;99.90
16929;DHT22;8581;47.334;11.190;2024-03-02T06:26:14;4.10;99.90
16929;DHT22;8581;47.334;11.190;2024-03-02T06:28:46;4.10;99.90
16929;DHT22;8581;47.334;11.190;2024-03-02T06:31:17;4.10;99.90
16929;DHT22;8581;47.334;11.190;2024-03-02T06:33:49;4.10;99.90
16929;DHT22;8581;47.334;11.190;2024-03-02T06:36:21;4.00;99.90
16929;DHT22;8581;47.334;11.190;2024-03-02T06:38:52;3.90;99.90
16929;DHT22;8581;47.334;11.190;2024-03-02T06:41:24;4.00;99.90
16929;DHT22;8581;47.334;11.190;2024-03-02T06:43:56;4.00;99.90
16929;DHT22;8581;47.334;11.190;2024-03-02T06:46:27;3.90;99.90
16929;DHT22;8581;47.334;11.190;2024-03-02T06:48:59;3.90;99.90
16929;DHT22;8581;47.334;11.190;2024-03-02T06:51:30;4.00;99.90
16929;DHT22;8581;47.334;11.190;2024-03-02T06:54:02;4.00;99.90
16929;DHT22;8581;47.334;11.190;2024-03-02T06:56:34;4.10;99.90
16929;DHT22;8581;47.334;11.190;2024-03-02T06:59:05;4.10;99.90
16929;DHT22;8581;47.334;11.190;2024-03-02T07:01:37;4.00;99.90
16929;DHT22;8581;47.334;11.190;2024-03-02T07:04:09;4.10;99.90
16929;DHT22;8581;47.334;11.190;2024-03-02T07:06:40;4.10;99.90
16929;DHT22;8581;47.334;11.190;2024-03-02T07:09:12;4.20;99.90
16929;DHT22;8581;47.334;11.190;2024-03-02T07:11:43;4.20;99.90
16929;DHT22;8581;47.334;11.190;2024-03-02T07:14:15;4.20;99.90
16929;DHT22;8581;47.334;11.190;2024-03-02T07:16:47;4.20;99.90
16929;DHT22;8581;47.334;11.190;2024-03-02T07:19:18;4.30;99.90
16929;DHT22;8581;47.334;11.190;2024-03-02T07:21:50;4.40;99.90
16929;DHT22;8581;47.334;11.190;2024-03-02T07:24:21;4.50;99.90
16929;DHT22;8581;47.334;11.190;2024-03-02T07:26:53;4.60;99.90
16929;DHT22;8581;47.334;11.190;2024-03-02T07:29:25;4.70;99.90
16929;DHT22;8581;47.334;11.190;2024-03-02T07:31:56;4.80;99.90
16929;DHT22;8581;47.334;11.190;2024-03-02T07:34:28;4.90;99.90
16929;DHT22;8581;47.334;11.190;2024-03-02T07:36:59;5.10;99.90
16929;DHT22;8581;47.334;11.190;2024-03-02T07:39:31;5.20;99.90
16929;DHT22;8581;47.334;11.190;2024-03-02T07:42:03;5.20;99.90
16929;DHT22;8581;47.334;11.190;2024-03-02T07:44:34;5.30;99.90
16929;DHT22;8581;47.334;11.190;2024-03-02T07:47:06;5.50;99.90
16929;DHT22;8581;47.334;11.190;2024-03-02T07:49:38;5.70;99.90
16929;DHT22;8581;47.334;11.190;2024-03-02T07:52:10;5.80;99.90
16929;DHT22;8581;47.334;11.190;2024-03-02T07:54:42;5.90;99.90
16929;DHT22;8581;47.334;11.190;2024-03-02T07:57:13;6.10;99.90
16929;DHT22;8581;47.334;11.190;2024-03-02T07:59:45;6.20;99.90
16929;DHT22;8581;47.334;11.190;2024-03-02T08:02:16;6.50;99.90
16929;DHT22;8581;47.334;11.190;2024-03-02T08:04:48;6.50;99.90
16929;DHT22;8581;47.334;11.190;2024-03-02T08:07:20;6.80;99.90
16929;DHT22;8581;47.334;11.190;2024-03-02T08:09:51;6.80;99.90
16929;DHT22;8581;47.334;11.190;2024-03-02T08:12:23;6.60;99.90
16929;DHT22;8581;47.334;11.190;2024-03-02T08:14:55;7.10;99.90
16929;DHT22;8581;47.334;11.190;2024-03-02T08:17:26;7.30;99.90
16929;DHT22;8581;47.334;11.190;2024-03-02T08:19:58;7.40;99.90
16929;DHT22;8581;47.334;11.190;2024-03-02T08:22:30;7.40;99.90
16929;DHT22;8581;47.334;11.190;2024-03-02T08:25:01;7.50;99.90
16929;DHT22;8581;47.334;11.190;2024-03-02T08:27:33;7.70;99.90
16929;DHT22;8581;47.334;11.190;2024-03-02T08:30:05;8.10;99.90
16929;DHT22;8581;47.334;11.190;2024-03-02T08:32:37;8.30;99.90
16929;DHT22;8581;47.334;11.190;2024-03-02T08:35:09;8.30;99.90
16929;DHT22;8581;47.334;11.190;2024-03-02T08:37:41;8.50;99.90
16929;DHT22;8581;47.334;11.190;2024-03-02T08:40:12;8.60;99.90
16929;DHT22;8581;47.334;11.190;2024-03-02T08:42:44;9.10;99.90
16929;DHT22;8581;47.334;11.190;2024-03-02T08:45:16;9.10;99.90
16929;DHT22;8581;47.334;11.190;2024-03-02T08:47:48;9.30;99.90
16929;DHT22;8581;47.334;11.190;2024-03-02T08:50:19;9.50;99.90
16929;DHT22;8581;47.334;11.190;2024-03-02T08:52:51;9.60;99.90
16929;DHT22;8581;47.334;11.190;2024-03-02T08:55:22;9.80;99.90
16929;DHT22;8581;47.334;11.190;2024-03-02T08:57:54;9.80;99.90
16929;DHT22;8581;47.334;11.190;2024-03-02T09:00:25;10.30;99.90
16929;DHT22;8581;47.334;11.190;2024-03-02T09:02:57;10.50;99.90
16929;DHT22;8581;47.334;11.190;2024-03-02T09:05:29;10.60;99.90
16929;DHT22;8581;47.334;11.190;2024-03-02T09:08:00;10.70;99.90
16929;DHT22;8581;47.334;11.190;2024-03-02T09:10:32;10.40;99.90
16929;DHT22;8581;47.334;11.190;2024-03-02T09:13:04;10.20;99.90
16929;DHT22;8581;47.334;11.190;2024-03-02T09:15:35;10.40;99.90
16929;DHT22;8581;47.334;11.190;2024-03-02T09:18:07;10.60;99.90
16929;DHT22;8581;47.334;11.190;2024-03-02T09:20:39;10.50;99.90
16929;DHT22;8581;47.334;11.190;2024-03-02T09:23:10;10.60;99.90
16929;DHT22;8581;47.334;11.190;2024-03-02T09:25:42;10.60;99.90
16929;DHT22;8581;47.334;11.190;2024-03-02T09:28:15;10.40;99.90
16929;DHT22;8581;47.334;11.190;2024-03-02T09:30:45;10.60;99.90
16929;DHT22;8581;47.334;11.190;2024-03-02T09:33:17;10.60;99.90
16929;DHT22;8581;47.334;11.190;2024-03-02T09:35:48;10.80;99.90
16929;DHT22;8581;47.334;11.190;2024-03-02T09:38:20;11.30;99.90
16929;DHT22;8581;47.334;11.190;2024-03-02T09:40:52;11.40;99.90
16929;DHT22;8581;47.334;11.190;2024-03-02T09:43:23;11.40;99.90
16929;DHT22;8581;47.334;11.190;2024-03-02T09:45:55;11.50;99.90
16929;DHT22;8581;47.334;11.190;2024-03-02T09:48:26;11.70;99.90
16929;DHT22;8581;47.334;11.190;2024-03-02T09:50:58;11.70;99.90
16929;DHT22;8581;47.334;11.190;2024-03-02T09:53:31;11.90;99.90
16929;DHT22;8581;47.334;11.190;2024-03-02T09:56:02;11.60;99.90
16929;DHT22;8581;47.334;11.190;2024-03-02T09:58:33;11.20;99.90
16929;DHT22;8581;47.334;11.190;2024-03-02T10:01:06;11.40;99.90
16929;DHT22;8581;47.334;11.190;2024-03-02T10:03:38;11.50;99.90
16929;DHT22;8581;47.334;11.190;2024-03-02T10:06:20;12.30;99.90
16929;DHT22;8581;47.334;11.190;2024-03-02T10:08:52;12.00;99.90
16929;DHT22;8581;47.334;11.190;2024-03-02T10:11:27;11.80;99.90
16929;DHT22;8581;47.334;11.190;2024-03-02T10:14:07;12.20;99.90
16929;DHT22;8581;47.334;11.190;2024-03-02T10:16:40;12.40;99.90
16929;DHT22;8581;47.334;11.190;2024-03-02T10:19:22;12.40;99.90
16929;DHT22;8581;47.334;11.190;2024-03-02T10:21:54;12.40;99.90
16929;DHT22;8581;47.334;11.190;2024-03-02T10:24:26;12.50;99.90
16929;DHT22;8581;47.334;11.190;2024-03-02T10:26:57;13.00;99.90
16929;DHT22;8581;47.334;11.190;2024-03-02T10:29:29;13.00;99.90
16929;DHT22;8581;47.334;11.190;2024-03-02T10:32:01;13.10;99.90
16929;DHT22;8581;47.334;11.190;2024-03-02T10:34:32;13.60;99.90
16929;DHT22;8581;47.334;11.190;2024-03-02T10:37:05;13.90;99.90
16929;DHT22;8581;47.334;11.190;2024-03-02T10:39:36;13.90;99.90
16929;DHT22;8581;47.334;11.190;2024-03-02T10:42:08;13.90;99.90
16929;DHT22;8581;47.334;11.190;2024-03-02T10:44:39;13.90;99.90
16929;DHT22;8581;47.334;11.190;2024-03-02T10:47:11;13.40;99.90
16929;DHT22;8581;47.334;11.190;2024-03-02T10:49:42;12.90;99.90
16929;DHT22;8581;47.334;11.190;2024-03-02T10:52:14;12.80;99.90
16929;DHT22;8581;47.334;11.190;2024-03-02T10:54:46;12.80;99.90
16929;DHT22;8581;47.334;11.190;2024-03-02T10:57:17;13.70;99.90
16929;DHT22;8581;47.334;11.190;2024-03-02T10:59:53;13.80;99.90
16929;DHT22;8581;47.334;11.190;2024-03-02T11:02:24;13.90;99.90
16929;DHT22;8581;47.334;11.190;2024-03-02T11:04:56;13.90;99.90
16929;DHT22;8581;47.334;11.190;2024-03-02T11:07:28;13.80;99.90
16929;DHT22;8581;47.334;11.190;2024-03-02T11:10:00;14.40;99.90
16929;DHT22;8581;47.334;11.190;2024-03-02T11:12:34;14.60;99.90
16929;DHT22;8581;47.334;11.190;2024-03-02T11:15:05;15.10;99.90
16929;DHT22;8581;47.334;11.190;2024-03-02T11:17:37;15.50;99.90
16929;DHT22;8581;47.334;11.190;2024-03-02T11:20:09;16.40;99.90
16929;DHT22;8581;47.334;11.190;2024-03-02T11:22:40;17.10;99.90
16929;DHT22;8581;47.334;11.190;2024-03-02T11:25:33;17.70;99.90
16929;DHT22;8581;47.334;11.190;2024-03-02T11:28:06;17.70;99.90
16929;DHT22;8581;47.334;11.190;2024-03-02T11:30:52;18.30;99.90
16929;DHT22;8581;47.334;11.190;2024-03-02T11:33:24;18.60;99.90
16929;DHT22;8581;47.334;11.190;2024-03-02T11:35:56;19.00;99.80
16929;DHT22;8581;47.334;11.190;2024-03-02T11:38:28;19.10;98.60
16929;DHT22;8581;47.334;11.190;2024-03-02T11:41:01;19.00;97.60
16929;DHT22;8581;47.334;11.190;2024-03-02T11:43:32;18.50;99.20
16929;DHT22;8581;47.334;11.190;2024-03-02T11:46:04;19.20;98.60
16929;DHT22;8581;47.334;11.190;2024-03-02T11:48:36;20.20;97.70
16929;DHT22;8581;47.334;11.190;2024-03-02T11:51:07;22.10;95.10
16929;DHT22;8581;47.334;11.190;2024-03-02T11:53:39;22.20;93.50
16929;DHT22;8581;47.334;11.190;2024-03-02T11:56:11;22.40;92.30
16929;DHT22;8581;47.334;11.190;2024-03-02T11:58:43;23.10;91.50
16929;DHT22;8581;47.334;11.190;2024-03-02T12:01:15;22.80;90.60
16929;DHT22;8581;47.334;11.190;2024-03-02T12:03:47;21.40;91.50
16929;DHT22;8581;47.334;11.190;2024-03-02T12:06:18;22.30;91.30
16929;DHT22;8581;47.334;11.190;2024-03-02T12:08:52;22.40;90.00
16929;DHT22;8581;47.334;11.190;2024-03-02T12:11:22;21.80;90.30
16929;DHT22;8581;47.334;11.190;2024-03-02T12:13:53;22.30;90.10
16929;DHT22;8581;47.334;11.190;2024-03-02T12:16:25;21.50;91.20
16929;DHT22;8581;47.334;11.190;2024-03-02T12:18:57;22.20;91.70
16929;DHT22;8581;47.334;11.190;2024-03-02T12:21:29;22.70;90.30
16929;DHT22;8581;47.334;11.190;2024-03-02T12:24:01;22.80;87.40
16929;DHT22;8581;47.334;11.190;2024-03-02T12:26:32;23.00;87.20
16929;DHT22;8581;47.334;11.190;2024-03-02T12:29:04;22.70;83.40
16929;DHT22;8581;47.334;11.190;2024-03-02T12:31:35;22.80;85.60
16929;DHT22;8581;47.334;11.190;2024-03-02T12:34:07;22.40;86.20
16929;DHT22;8581;47.334;11.190;2024-03-02T12:36:39;22.60;85.30
16929;DHT22;8581;47.334;11.190;2024-03-02T12:39:10;22.90;85.00
16929;DHT22;8581;47.334;11.190;2024-03-02T12:41:42;22.90;84.20
16929;DHT22;8581;47.334;11.190;2024-03-02T12:44:14;24.10;82.70
16929;DHT22;8581;47.334;11.190;2024-03-02T12:46:46;23.70;79.20
16929;DHT22;8581;47.334;11.190;2024-03-02T12:49:17;23.80;80.20
16929;DHT22;8581;47.334;11.190;2024-03-02T12:51:49;24.00;79.90
16929;DHT22;8581;47.334;11.190;2024-03-02T12:54:21;24.00;77.40
16929;DHT22;8581;47.334;11.190;2024-03-02T12:56:52;23.80;77.20
16929;DHT22;8581;47.334;11.190;2024-03-02T12:59:24;25.10;78.60
16929;DHT22;8581;47.334;11.190;2024-03-02T13:01:55;24.90;73.50
16929;DHT22;8581;47.334;11.190;2024-03-02T13:04:29;23.80;71.60
16929;DHT22;8581;47.334;11.190;2024-03-02T13:07:01;24.30;72.70
16929;DHT22;8581;47.334;11.190;2024-03-02T13:09:32;24.20;71.40
16929;DHT22;8581;47.334;11.190;2024-03-02T13:12:05;23.90;71.20
16929;DHT22;8581;47.334;11.190;2024-03-02T13:14:36;22.60;75.00
16929;DHT22;8581;47.334;11.190;2024-03-02T13:17:08;22.50;73.10
16929;DHT22;8581;47.334;11.190;2024-03-02T13:22:21;20.70;78.40
16929;DHT22;8581;47.334;11.190;2024-03-02T13:24:53;21.30;77.90
16929;DHT22;8581;47.334;11.190;2024-03-02T13:27:26;20.80;75.80
16929;DHT22;8581;47.334;11.190;2024-03-02T13:29:58;19.40;78.70
16929;DHT22;8581;47.334;11.190;2024-03-02T13:32:29;18.40;80.10
16929;DHT22;8581;47.334;11.190;2024-03-02T13:35:01;17.50;78.80
16929;DHT22;8581;47.334;11.190;2024-03-02T13:37:33;18.20;80.00
16929;DHT22;8581;47.334;11.190;2024-03-02T13:40:05;20.10;75.50
16929;DHT22;8581;47.334;11.190;2024-03-02T13:42:37;21.00;74.50
16929;DHT22;8581;47.334;11.190;2024-03-02T13:45:09;22.70;72.30
16929;DHT22;8581;47.334;11.190;2024-03-02T13:47:40;24.00;68.50
16929;DHT22;8581;47.334;11.190;2024-03-02T13:50:12;24.60;66.30
16929;DHT22;8581;47.334;11.190;2024-03-02T13:52:44;24.20;65.60
16929;DHT22;8581;47.334;11.190;2024-03-02T13:55:15;24.30;64.90
16929;DHT22;8581;47.334;11.190;2024-03-02T13:57:47;24.80;64.10
16929;DHT22;8581;47.334;11.190;2024-03-02T14:00:19;24.50;63.90
16929;DHT22;8581;47.334;11.190;2024-03-02T14:02:50;23.70;65.40
16929;DHT22;8581;47.334;11.190;2024-03-02T14:05:22;23.60;65.50
16929;DHT22;8581;47.334;11.190;2024-03-02T14:07:54;25.20;62.20
16929;DHT22;8581;47.334;11.190;2024-03-02T14:10:25;25.80;61.20
16929;DHT22;8581;47.334;11.190;2024-03-02T14:12:57;26.00;62.00
16929;DHT22;8581;47.334;11.190;2024-03-02T14:15:29;26.20;60.20
16929;DHT22;8581;47.334;11.190;2024-03-02T14:18:00;25.40;61.10
16929;DHT22;8581;47.334;11.190;2024-03-02T14:20:32;25.20;61.20
16929;DHT22;8581;47.334;11.190;2024-03-02T14:23:04;25.30;61.80
16929;DHT22;8581;47.334;11.190;2024-03-02T14:25:35;25.80;61.30
16929;DHT22;8581;47.334;11.190;2024-03-02T14:28:07;28.40;57.90
16929;DHT22;8581;47.334;11.190;2024-03-02T14:30:39;28.20;58.10
16929;DHT22;8581;47.334;11.190;2024-03-02T14:33:10;27.90;57.10
16929;DHT22;8581;47.334;11.190;2024-03-02T14:35:42;28.20;56.20
16929;DHT22;8581;47.334;11.190;2024-03-02T14:38:14;28.40;55.90
16929;DHT22;8581;47.334;11.190;2024-03-02T14:40:45;28.90;55.60
16929;DHT22;8581;47.334;11.190;2024-03-02T14:43:17;27.20;56.00
16929;DHT22;8581;47.334;11.190;2024-03-02T14:45:48;24.10;58.80
16929;DHT22;8581;47.334;11.190;2024-03-02T14:48:20;21.50;62.30
16929;DHT22;8581;47.334;11.190;2024-03-02T14:50:52;19.30;67.30
16929;DHT22;8581;47.334;11.190;2024-03-02T14:53:28;17.90;71.00
16929;DHT22;8581;47.334;11.190;2024-03-02T14:56:00;16.30;75.30
16929;DHT22;8581;47.334;11.190;2024-03-02T14:58:31;15.60;76.80
16929;DHT22;8581;47.334;11.190;2024-03-02T15:01:03;15.70;76.90
16929;DHT22;8581;47.334;11.190;2024-03-02T15:03:35;15.30;77.90
16929;DHT22;8581;47.334;11.190;2024-03-02T15:06:07;14.80;78.30
16929;DHT22;8581;47.334;11.190;2024-03-02T15:08:38;14.50;78.60
16929;DHT22;8581;47.334;11.190;2024-03-02T15:11:10;14.10;80.90
16929;DHT22;8581;47.334;11.190;2024-03-02T15:13:42;14.40;81.00
16929;DHT22;8581;47.334;11.190;2024-03-02T15:16:13;14.50;81.20
16929;DHT22;8581;47.334;11.190;2024-03-02T15:18:45;15.10;80.00
16929;DHT22;8581;47.334;11.190;2024-03-02T15:21:17;16.10;78.60
16929;DHT22;8581;47.334;11.190;2024-03-02T15:23:48;16.90;77.40
16929;DHT22;8581;47.334;11.190;2024-03-02T15:26:20;18.30;73.60
16929;DHT22;8581;47.334;11.190;2024-03-02T15:28:52;19.10;71.30
16929;DHT22;8581;47.334;11.190;2024-03-02T15:31:23;19.90;70.00
16929;DHT22;8581;47.334;11.190;2024-03-02T15:33:55;20.00;68.40
16929;DHT22;8581;47.334;11.190;2024-03-02T15:36:27;20.40;68.50
16929;DHT22;8581;47.334;11.190;2024-03-02T15:38:58;22.00;65.50
16929;DHT22;8581;47.334;11.190;2024-03-02T15:41:30;22.60;62.50
16929;DHT22;8581;47.334;11.190;2024-03-02T15:44:01;22.70;62.50
16929;DHT22;8581;47.334;11.190;2024-03-02T15:46:33;22.70;62.20
16929;DHT22;8581;47.334;11.190;2024-03-02T15:49:05;22.70;61.30
16929;DHT22;8581;47.334;11.190;2024-03-02T15:51:36;21.70;62.30
16929;DHT22;8581;47.334;11.190;2024-03-02T15:54:08;22.10;63.70
16929;DHT22;8581;47.334;11.190;2024-03-02T15:56:40;22.10;63.50
16929;DHT22;8581;47.334;11.190;2024-03-02T15:59:11;22.10;60.80
16929;DHT22;8581;47.334;11.190;2024-03-02T16:01:43;20.90;63.30
16929;DHT22;8581;47.334;11.190;2024-03-02T16:04:15;21.90;62.40
16929;DHT22;8581;47.334;11.190;2024-03-02T16:06:46;21.50;62.00
16929;DHT22;8581;47.334;11.190;2024-03-02T16:09:18;19.80;65.60
16929;DHT22;8581;47.334;11.190;2024-03-02T16:11:50;19.90;65.20
16929;DHT22;8581;47.334;11.190;2024-03-02T16:14:21;19.90;64.80
16929;DHT22;8581;47.334;11.190;2024-03-02T16:16:53;18.70;66.40